createdAt,value
2022-12-05T00:02:17.850Z,86.13
2022-12-05T00:07:24.139Z,85.98
2022-12-05T00:12:30.677Z,86.01
2022-12-05T00:17:38.650Z,85.99
2022-12-05T00:22:45.131Z,85.39
2022-12-05T00:27:51.510Z,85.80
2022-12-05T00:32:59.969Z,85.90
2022-12-05T00:38:06.339Z,85.81
2022-12-05T00:43:12.561Z,85.65
2022-12-05T00:48:20.148Z,86.09
2022-12-05T00:53:26.311Z,85.92
2022-12-05T00:58:33.734Z,85.81
2022-12-05T01:03:41.840Z,85.75
2022-12-05T01:08:48.624Z,85.63
2022-12-05T01:13:55.655Z,85.90
2022-12-05T01:19:08.497Z,86.21
2022-12-05T01:24:15.208Z,85.97
2022-12-05T01:29:23.404Z,85.87
2022-12-05T01:34:31.448Z,85.98
2022-12-05T01:39:37.776Z,85.71
2022-12-05T01:45:08.893Z,85.93
2022-12-05T01:50:16.837Z,86.04
2022-12-05T01:55:23.468Z,86.01
2022-12-05T02:00:30.226Z,85.84
2022-12-05T02:05:39.691Z,85.71
2022-12-05T02:10:50.517Z,85.63
2022-12-05T02:16:05.110Z,86.31
2022-12-05T02:22:10.947Z,86.24
2022-12-05T02:27:45.939Z,85.82
2022-12-05T02:33:12.388Z,85.97
2022-12-05T02:38:27.944Z,85.81
2022-12-05T02:43:41.438Z,85.82
2022-12-05T02:48:51.707Z,86.04
2022-12-05T02:54:02.781Z,85.87
2022-12-05T02:59:09.131Z,85.99
2022-12-05T03:04:18.680Z,86.00
2022-12-05T03:09:30.785Z,86.10
2022-12-05T03:14:46.166Z,86.02
2022-12-05T03:20:00.078Z,85.98
2022-12-05T03:25:08.118Z,86.29
2022-12-05T03:30:18.883Z,86.01
2022-12-05T03:35:33.731Z,86.24
2022-12-05T03:40:47.133Z,86.06
2022-12-05T03:46:02.265Z,85.76
2022-12-05T03:51:14.037Z,85.55
2022-12-05T03:56:26.751Z,86.17
2022-12-05T04:01:35.433Z,86.00
2022-12-05T04:06:47.368Z,86.02
2022-12-05T04:12:00.193Z,86.02
2022-12-05T04:17:12.638Z,85.98
2022-12-05T04:22:21.166Z,85.83
2022-12-05T04:27:36.953Z,85.71
2022-12-05T04:32:47.975Z,85.85
2022-12-05T04:38:03.840Z,86.18
2022-12-05T04:43:14.112Z,85.60
2022-12-05T04:48:21.322Z,86.03
2022-12-05T04:53:33.048Z,85.98
2022-12-05T04:58:39.416Z,86.28
2022-12-05T05:03:51.935Z,86.09
2022-12-05T05:09:00.792Z,86.00
2022-12-05T05:14:07.415Z,85.65
2022-12-05T05:19:14.143Z,85.68
2022-12-05T05:24:23.886Z,85.54
2022-12-05T05:29:30.156Z,85.54
2022-12-05T05:34:36.798Z,85.70
2022-12-05T05:39:44.723Z,85.80
2022-12-05T05:44:51.068Z,85.37
2022-12-05T05:49:57.640Z,85.64
2022-12-05T05:55:07.710Z,85.41
2022-12-05T06:00:16.310Z,85.29
2022-12-05T06:05:22.604Z,85.10
2022-12-05T06:10:31.376Z,85.38
2022-12-05T06:15:39.647Z,85.24
2022-12-05T06:20:54.966Z,85.55
2022-12-05T06:26:03.154Z,85.44
2022-12-05T06:31:11.470Z,85.37
2022-12-05T06:36:20.873Z,85.69
2022-12-05T06:41:29.551Z,85.45
2022-12-05T06:46:35.798Z,85.52
2022-12-05T06:51:42.177Z,85.31
2022-12-05T06:56:50.095Z,85.13
2022-12-05T07:01:56.432Z,85.36
2022-12-05T07:07:03.264Z,85.15
2022-12-05T07:12:11.372Z,85.11
2022-12-05T07:17:17.987Z,85.03
2022-12-05T07:22:25.681Z,84.88
2022-12-05T07:27:34.502Z,85.10
2022-12-05T07:32:40.975Z,85.18
2022-12-05T07:37:47.352Z,85.24
2022-12-05T07:42:54.957Z,84.94
2022-12-05T07:48:01.295Z,85.10
2022-12-05T07:53:07.483Z,85.05
2022-12-05T07:58:15.145Z,84.80
2022-12-05T08:03:21.365Z,85.54
2022-12-05T08:08:27.715Z,85.38
2022-12-05T08:13:35.728Z,85.45
2022-12-05T08:18:42.193Z,85.43
2022-12-05T08:23:48.990Z,85.31
2022-12-05T08:29:00.815Z,85.42
2022-12-05T08:34:07.300Z,85.35
2022-12-05T08:39:16.792Z,85.47
2022-12-05T08:44:25.515Z,85.34
2022-12-05T08:49:31.876Z,85.32
2022-12-05T08:54:38.127Z,85.57
2022-12-05T08:59:45.774Z,85.37
2022-12-05T09:04:54.183Z,85.36
2022-12-05T09:10:00.890Z,85.36
2022-12-05T09:15:12.126Z,85.34
2022-12-05T09:20:18.900Z,85.33
2022-12-05T09:25:25.270Z,85.43
2022-12-05T09:30:32.773Z,85.27
2022-12-05T09:35:42.117Z,85.22
2022-12-05T09:40:50.403Z,85.14
2022-12-05T09:46:06.239Z,85.01
2022-12-05T09:51:14.180Z,84.59
2022-12-05T09:56:28.595Z,85.11
2022-12-05T10:01:43.015Z,84.74
2022-12-05T10:07:01.619Z,84.79
2022-12-05T10:12:21.916Z,84.50
2022-12-05T10:17:35.873Z,84.64
2022-12-05T10:22:49.398Z,84.37
2022-12-05T10:28:00.667Z,84.76
2022-12-05T10:33:19.902Z,84.34
2022-12-05T10:38:29.542Z,84.08
2022-12-05T10:43:43.838Z,84.30
2022-12-05T10:48:51.535Z,84.27
2022-12-05T10:53:58.310Z,84.40
2022-12-05T10:59:05.036Z,84.51
2022-12-05T11:04:30.873Z,84.34
2022-12-05T11:09:39.714Z,84.52
2022-12-05T11:15:05.839Z,84.59
2022-12-05T11:20:41.623Z,84.35
2022-12-05T11:25:48.061Z,84.61
2022-12-05T11:31:01.376Z,84.50
2022-12-05T11:36:23.799Z,84.63
2022-12-05T11:41:50.737Z,84.53
2022-12-05T11:47:08.125Z,84.50
2022-12-05T11:52:29.847Z,84.37
2022-12-05T11:58:07.284Z,84.54
2022-12-05T12:03:46.675Z,84.78
2022-12-05T12:09:17.420Z,84.72
2022-12-05T12:14:34.781Z,84.97
2022-12-05T12:20:12.862Z,85.01
2022-12-05T12:25:33.417Z,84.99
2022-12-05T12:31:02.078Z,84.99
2022-12-05T12:36:19.863Z,85.18
2022-12-05T12:41:58.115Z,85.28
2022-12-05T12:47:06.234Z,85.21
2022-12-05T12:52:17.525Z,85.28
2022-12-05T12:57:33.124Z,85.44
2022-12-05T13:02:48.250Z,85.52
2022-12-05T13:07:59.895Z,85.88
2022-12-05T13:13:11.937Z,85.68
2022-12-05T13:18:21.144Z,85.66
2022-12-05T13:23:29.599Z,85.83
2022-12-05T13:28:45.463Z,85.90
2022-12-05T13:33:53.038Z,86.01
2022-12-05T13:39:22.963Z,85.93
2022-12-05T13:44:37.718Z,86.22
2022-12-05T13:49:50.356Z,86.13
2022-12-05T13:55:02.647Z,86.27
2022-12-05T14:00:34.518Z,86.30
2022-12-05T14:05:53.699Z,86.55
2022-12-05T14:11:13.385Z,86.42
2022-12-05T14:16:51.528Z,86.12
2022-12-05T14:22:15.797Z,86.51
2022-12-05T14:27:45.062Z,86.59
2022-12-05T14:32:54.401Z,86.79
2022-12-05T14:38:05.832Z,87.22
2022-12-05T14:43:23.499Z,86.89
2022-12-05T14:48:35.194Z,86.94
2022-12-05T14:53:45.157Z,86.84
2022-12-05T14:58:59.765Z,87.01
2022-12-05T15:04:16.351Z,86.75
2022-12-05T15:09:43.822Z,87.16
2022-12-05T15:15:09.631Z,87.02
2022-12-05T15:20:40.285Z,86.97
2022-12-05T15:25:47.771Z,87.08
2022-12-05T15:30:59.116Z,87.05
2022-12-05T15:36:09.020Z,86.87
2022-12-05T15:41:19.933Z,87.00
2022-12-05T15:46:28.426Z,86.97
2022-12-05T15:51:39.766Z,86.99
2022-12-05T15:56:52.180Z,86.90
2022-12-05T16:02:05.251Z,86.81
2022-12-05T16:07:15.535Z,87.01
2022-12-05T16:12:28.860Z,86.96
2022-12-05T16:17:44.509Z,86.73
2022-12-05T16:22:55.569Z,86.97
2022-12-05T16:28:18.942Z,86.59
2022-12-05T16:33:25.620Z,86.71
2022-12-05T16:38:34.770Z,86.78
2022-12-05T16:43:48.239Z,86.98
2022-12-05T16:49:21.118Z,86.63
2022-12-05T16:54:29.208Z,86.54
2022-12-05T16:59:38.330Z,86.95
2022-12-05T17:04:44.705Z,86.74
2022-12-05T17:09:52.487Z,86.84
2022-12-05T17:15:00.626Z,86.79
2022-12-05T17:20:09.220Z,86.93
2022-12-05T17:25:28.704Z,86.62
2022-12-05T17:30:35.480Z,86.72
2022-12-05T17:35:43.041Z,86.84
2022-12-05T17:40:54.976Z,86.66
2022-12-05T17:46:02.901Z,86.82
2022-12-05T17:51:13.505Z,86.48
2022-12-05T17:56:21.969Z,86.57
2022-12-05T18:01:28.645Z,86.68
2022-12-05T18:06:35.782Z,86.52
2022-12-05T18:11:43.590Z,86.38
2022-12-05T18:16:50.288Z,86.51
2022-12-05T18:21:57.556Z,86.56
2022-12-05T18:27:06.119Z,86.50
2022-12-05T18:32:13.048Z,86.65
2022-12-05T18:37:19.916Z,86.36
2022-12-05T18:42:28.852Z,86.73
2022-12-05T18:47:36.315Z,86.58
2022-12-05T18:52:43.393Z,86.61
2022-12-05T18:57:53.789Z,86.67
2022-12-05T19:03:07.954Z,86.49
2022-12-05T19:08:17.715Z,86.59
2022-12-05T19:13:27.270Z,86.83
2022-12-05T19:18:34.278Z,86.53
2022-12-05T19:23:41.408Z,86.48
2022-12-05T19:28:50.562Z,86.61
2022-12-05T19:34:01.386Z,86.38
2022-12-05T19:39:13.736Z,86.32
2022-12-05T19:44:23.233Z,86.27
2022-12-05T19:49:30.628Z,86.32
2022-12-05T19:54:37.495Z,86.33
2022-12-05T19:59:47.396Z,86.34
2022-12-05T20:04:54.163Z,86.35
2022-12-05T20:10:02.854Z,86.38
2022-12-05T20:15:12.280Z,86.40
2022-12-05T20:20:20.622Z,86.29
2022-12-05T20:25:28.016Z,86.41
2022-12-05T20:30:38.256Z,86.37
2022-12-05T20:35:46.443Z,86.23
2022-12-05T20:40:54.408Z,86.40
2022-12-05T20:46:08.477Z,86.55
2022-12-05T20:51:18.342Z,86.18
2022-12-05T20:56:29.000Z,86.20
2022-12-05T21:01:37.813Z,86.25
2022-12-05T21:06:46.332Z,86.30
2022-12-05T21:11:52.938Z,86.36
2022-12-05T21:17:01.076Z,86.46
2022-12-05T21:22:07.458Z,86.21
2022-12-05T21:27:14.129Z,86.18
2022-12-05T21:32:21.939Z,86.28
2022-12-05T21:37:28.213Z,86.28
2022-12-05T21:42:34.840Z,86.56
2022-12-05T21:47:42.525Z,86.28
2022-12-05T21:52:48.821Z,86.20
2022-12-05T21:57:56.000Z,86.53
2022-12-05T22:03:04.009Z,86.54
2022-12-05T22:08:10.541Z,86.52
2022-12-05T22:13:17.143Z,86.48
2022-12-05T22:18:25.066Z,86.62
2022-12-05T22:23:31.957Z,86.60
2022-12-05T22:28:39.206Z,86.90
2022-12-05T22:33:47.946Z,86.81
2022-12-05T22:38:54.404Z,86.62
2022-12-05T22:44:02.015Z,86.60
2022-12-05T22:49:12.134Z,86.48
2022-12-05T22:54:18.714Z,86.40
2022-12-05T22:59:24.992Z,86.58
2022-12-05T23:04:32.828Z,86.60
2022-12-05T23:09:39.321Z,86.65
2022-12-05T23:14:45.965Z,86.63
2022-12-05T23:19:54.108Z,86.85
2022-12-05T23:25:00.258Z,87.16
2022-12-05T23:30:08.346Z,87.20
2022-12-05T23:35:16.449Z,87.06
2022-12-05T23:40:22.858Z,86.98
2022-12-05T23:45:29.356Z,87.09
2022-12-05T23:50:37.125Z,87.03
2022-12-05T23:55:43.517Z,87.43
